Time;durP1;ratioP1;P1;durP2;ratioP2;P2;SDS_P1;SDS_P2;PMS_P1;PMS_P2;Temp;Humidity;BMP_temperature;BMP_pressure;BME280_temperature;BME280_humidity;BME280_pressure;Samples;Min_cycle;Max_cycle;Signal;HPM_P1;HPM_P2
2021/05/17 00:01:15;;;;;;;1.15;0.70;;;12.70;92.20;;;;;;5077151;28;20393;-78
2021/05/17 00:03:46;;;;;;;1.95;0.70;;;12.80;92.10;;;;;;5077443;28;20194;-78
2021/05/17 00:06:12;;;;;;;1.70;0.90;;;12.80;92.10;;;;;;5076976;28;20674;-78
2021/05/17 00:08:38;;;;;;;2.63;1.20;;;12.70;91.60;;;;;;5076572;28;20173;-78
2021/05/17 00:11:04;;;;;;;0.80;0.70;;;12.70;90.80;;;;;;5077045;28;20680;-77
2021/05/17 00:13:30;;;;;;;1.85;1.00;;;12.70;90.90;;;;;;5076712;28;20169;-77
2021/05/17 00:15:56;;;;;;;0.60;0.60;;;12.60;91.20;;;;;;5075613;28;20172;-78
2021/05/17 00:18:22;;;;;;;13.70;1.20;;;12.60;91.00;;;;;;5075579;28;20981;-78
2021/05/17 00:20:48;;;;;;;0.90;0.80;;;12.60;91.00;;;;;;5076425;28;20503;-77
2021/05/17 00:23:14;;;;;;;1.52;0.80;;;12.60;91.10;;;;;;5076808;28;20175;-78
2021/05/17 00:25:40;;;;;;;2.78;1.00;;;12.60;91.30;;;;;;5076499;28;20168;-78
2021/05/17 00:28:06;;;;;;;0.98;0.80;;;12.50;91.20;;;;;;5076837;28;20539;-78
2021/05/17 00:30:32;;;;;;;1.00;0.68;;;12.50;91.40;;;;;;5076408;28;20596;-78
2021/05/17 00:32:59;;;;;;;2.25;0.88;;;12.60;91.30;;;;;;5076359;28;20188;-78
2021/05/17 00:35:25;;;;;;;3.53;0.77;;;12.60;91.00;;;;;;5075815;28;20177;-77
2021/05/17 00:37:52;;;;;;;1.42;0.90;;;12.50;91.00;;;;;;5076118;28;20174;-78
2021/05/17 00:40:19;;;;;;;1.02;0.80;;;12.50;91.00;;;;;;5076152;28;20313;-85
2021/05/17 00:42:46;;;;;;;1.20;0.80;;;12.40;91.20;;;;;;5075605;28;20249;-85
2021/05/17 00:45:14;;;;;;;0.70;0.55;;;12.50;91.40;;;;;;5075930;28;20175;-85
2021/05/17 00:47:46;;;;;;;1.65;0.80;;;12.50;90.80;;;;;;5075533;28;20702;-85
2021/05/17 00:50:20;;;;;;;1.30;0.70;;;12.50;90.70;;;;;;5075310;28;20676;-85
2021/05/17 00:52:46;;;;;;;1.10;0.75;;;12.50;90.70;;;;;;5074918;28;20161;-84
2021/05/17 00:55:14;;;;;;;1.95;0.77;;;12.50;91.20;;;;;;5075113;28;20179;-84
2021/05/17 00:57:40;;;;;;;2.65;0.70;;;12.50;91.90;;;;;;5074694;28;20173;-85
2021/05/17 01:00:08;;;;;;;3.17;0.80;;;12.40;91.20;;;;;;5074690;28;20285;-84
2021/05/17 01:02:34;;;;;;;5.38;1.02;;;12.40;91.30;;;;;;5074736;28;20931;-85
2021/05/17 01:05:02;;;;;;;4.30;0.98;;;12.40;90.80;;;;;;5074951;28;20165;-85
2021/05/17 01:07:29;;;;;;;1.13;0.80;;;12.40;91.00;;;;;;5074593;28;20195;-85
2021/05/17 01:09:59;;;;;;;1.00;0.90;;;12.40;91.20;;;;;;5074652;28;20193;-84
2021/05/17 01:12:25;;;;;;;0.95;0.65;;;12.30;91.00;;;;;;5075509;28;20176;-85
2021/05/17 01:14:57;;;;;;;0.95;0.70;;;12.30;90.90;;;;;;5075763;28;20176;-85
2021/05/17 01:17:28;;;;;;;2.45;0.80;;;12.30;90.50;;;;;;5074333;28;20192;-85
2021/05/17 01:20:08;;;;;;;1.83;0.93;;;12.20;90.90;;;;;;5074438;28;20204;-85
2021/05/17 01:25:19;;;;;;;6.38;0.93;;;12.20;91.20;;;;;;5077174;28;20191;-84
2021/05/17 01:27:46;;;;;;;3.70;1.00;;;12.10;91.20;;;;;;5076032;28;20191;-84
2021/05/17 01:30:13;;;;;;;2.38;1.65;;;12.10;91.30;;;;;;5076544;28;20695;-84
2021/05/17 01:32:39;;;;;;;1.20;1.10;;;12.10;91.60;;;;;;5078531;28;20161;-84
2021/05/17 01:35:05;;;;;;;1.02;0.77;;;12.10;91.60;;;;;;5078255;28;20613;-84
2021/05/17 01:37:33;;;;;;;3.03;0.85;;;12.10;91.60;;;;;;5078219;28;20173;-84
2021/05/17 01:40:00;;;;;;;2.47;0.73;;;12.10;91.50;;;;;;5078345;28;20239;-83
2021/05/17 01:42:28;;;;;;;1.70;1.00;;;12.10;91.40;;;;;;5079038;28;20176;-84
2021/05/17 01:44:55;;;;;;;3.85;0.80;;;12.10;91.20;;;;;;5077898;28;20164;-84
2021/05/17 01:47:23;;;;;;;3.83;1.00;;;12.10;91.50;;;;;;5078380;28;20174;-84
2021/05/17 01:49:51;;;;;;;1.25;0.77;;;12.00;91.60;;;;;;5077722;28;20242;-84
2021/05/17 01:52:19;;;;;;;3.05;1.00;;;11.90;91.90;;;;;;5078668;28;20180;-84
2021/05/17 01:54:48;;;;;;;1.17;1.00;;;11.90;91.90;;;;;;5077789;28;20644;-84
2021/05/17 01:57:15;;;;;;;2.20;1.00;;;12.00;92.20;;;;;;5078952;28;20173;-84
2021/05/17 01:59:41;;;;;;;8.25;1.08;;;12.00;92.30;;;;;;5076711;28;20196;-84
2021/05/17 02:02:06;;;;;;;3.22;1.10;;;12.00;92.10;;;;;;5074918;28;20179;-84
2021/05/17 02:04:32;;;;;;;5.23;1.20;;;11.90;92.10;;;;;;5074700;28;20169;-84
2021/05/17 02:06:58;;;;;;;1.50;0.90;;;11.90;92.30;;;;;;5075000;28;20482;-84
2021/05/17 02:09:26;;;;;;;3.17;2.30;;;11.90;92.20;;;;;;5075445;28;20407;-84
2021/05/17 02:11:53;;;;;;;1.65;0.80;;;11.90;92.00;;;;;;5076432;28;20430;-84
2021/05/17 02:14:22;;;;;;;3.38;0.77;;;12.00;91.80;;;;;;5078344;28;20176;-84
2021/05/17 02:16:49;;;;;;;2.80;0.90;;;12.00;91.70;;;;;;5078330;28;20168;-84
2021/05/17 02:19:21;;;;;;;1.65;0.80;;;11.90;91.90;;;;;;5078499;28;20703;-84
2021/05/17 02:21:48;;;;;;;3.00;0.90;;;11.90;91.70;;;;;;5079012;28;20192;-84
2021/05/17 02:24:15;;;;;;;4.60;1.20;;;11.90;91.70;;;;;;5076480;28;20263;-84
2021/05/17 02:26:41;;;;;;;1.38;0.80;;;11.90;91.60;;;;;;5075180;28;20179;-83
2021/05/17 02:29:08;;;;;;;1.05;0.75;;;11.90;91.40;;;;;;5076383;28;20175;-84
2021/05/17 02:31:34;;;;;;;1.20;0.90;;;11.90;91.30;;;;;;5076286;28;20278;-83
2021/05/17 02:34:01;;;;;;;3.20;0.80;;;11.90;91.00;;;;;;5076601;28;20176;-84
2021/05/17 02:36:27;;;;;;;1.38;1.00;;;11.90;91.40;;;;;;5078743;28;20183;-84
2021/05/17 02:38:53;;;;;;;2.15;1.05;;;11.90;91.50;;;;;;5078404;28;20579;-84
2021/05/17 02:41:22;;;;;;;3.80;1.00;;;11.90;91.10;;;;;;5082548;28;20188;-84
2021/05/17 02:43:48;;;;;;;1.95;0.85;;;11.90;91.00;;;;;;5080394;28;20414;-84
2021/05/17 02:46:15;;;;;;;3.40;1.00;;;11.90;90.90;;;;;;5079512;28;20172;-84
2021/05/17 02:48:42;;;;;;;1.67;0.73;;;11.90;90.60;;;;;;5077305;28;20200;-85
2021/05/17 02:51:11;;;;;;;6.25;2.05;;;11.80;90.70;;;;;;5078544;28;20204;-84
2021/05/17 02:53:49;;;;;;;0.93;0.90;;;11.80;91.30;;;;;;5079391;28;20225;-84
2021/05/17 02:56:23;;;;;;;2.03;1.00;;;11.80;90.80;;;;;;5079186;28;20169;-84
2021/05/17 02:58:51;;;;;;;1.30;1.00;;;11.80;90.70;;;;;;5077630;28;20271;-84
2021/05/17 03:01:28;;;;;;;6.55;1.10;;;11.80;90.90;;;;;;5076242;28;20184;-84
2021/05/17 03:03:57;;;;;;;1.58;1.10;;;11.80;90.90;;;;;;5076464;28;20165;-85
2021/05/17 03:06:27;;;;;;;1.85;0.70;;;11.80;90.90;;;;;;5076469;28;20651;-84
2021/05/17 03:08:55;;;;;;;1.83;0.68;;;11.80;91.10;;;;;;5076580;28;20169;-84
2021/05/17 03:11:22;;;;;;;1.80;1.05;;;11.80;91.10;;;;;;5076064;28;20283;-85
2021/05/17 03:13:51;;;;;;;6.28;1.00;;;11.90;91.00;;;;;;5076463;28;20215;-83
2021/05/17 03:16:20;;;;;;;1.15;0.80;;;11.80;90.90;;;;;;5076551;28;20709;-83
2021/05/17 03:18:48;;;;;;;0.95;0.85;;;11.80;90.80;;;;;;5075994;28;20228;-84
2021/05/17 03:21:18;;;;;;;1.98;0.90;;;11.80;91.10;;;;;;5076181;28;20240;-83
2021/05/17 03:23:45;;;;;;;2.15;0.70;;;11.80;90.90;;;;;;5076648;28;20199;-83
2021/05/17 03:26:12;;;;;;;1.75;0.93;;;11.80;90.70;;;;;;5076443;28;20198;-84
2021/05/17 03:28:38;;;;;;;1.15;0.80;;;11.80;90.60;;;;;;5080562;28;20195;-82
2021/05/17 03:31:03;;;;;;;1.07;0.73;;;11.80;90.80;;;;;;5081950;28;20192;-83
2021/05/17 03:33:31;;;;;;;2.30;1.00;;;11.70;91.00;;;;;;5077303;28;20203;-84
2021/05/17 03:35:57;;;;;;;0.75;0.70;;;11.70;91.00;;;;;;5076097;28;20168;-84
2021/05/17 03:38:23;;;;;;;0.73;0.63;;;11.70;91.40;;;;;;5075979;28;20280;-84
2021/05/17 03:40:48;;;;;;;1.13;1.00;;;11.70;91.20;;;;;;5075758;28;20482;-84
2021/05/17 03:43:14;;;;;;;1.30;0.90;;;11.70;91.10;;;;;;5075612;28;20169;-84
2021/05/17 03:45:40;;;;;;;2.33;1.30;;;11.70;91.10;;;;;;5075994;28;20173;-84
2021/05/17 03:48:06;;;;;;;0.95;0.90;;;11.80;91.10;;;;;;5075916;28;20255;-83
2021/05/17 03:50:32;;;;;;;1.15;0.85;;;11.80;91.00;;;;;;5075422;28;20242;-84
2021/05/17 03:52:58;;;;;;;2.47;0.80;;;11.80;91.00;;;;;;5075164;28;20165;-84
2021/05/17 03:55:24;;;;;;;1.10;0.80;;;11.80;91.10;;;;;;5075920;28;20407;-84
2021/05/17 03:57:49;;;;;;;9.07;0.93;;;11.80;90.90;;;;;;5078257;28;20169;-84
2021/05/17 04:00:15;;;;;;;1.30;0.90;;;11.80;91.00;;;;;;5077104;28;20521;-84
2021/05/17 04:02:43;;;;;;;1.60;1.25;;;11.80;91.20;;;;;;5075985;28;20172;-84
2021/05/17 04:08:08;;;;;;;3.15;1.00;;;11.80;90.60;;;;;;5077763;28;20148;-84
2021/05/17 04:13:21;;;;;;;2.92;0.75;;;11.70;90.90;;;;;;5077838;28;20226;-84
2021/05/17 04:15:48;;;;;;;1.10;0.75;;;11.70;91.40;;;;;;5075927;28;20692;-85
2021/05/17 04:18:16;;;;;;;2.25;0.77;;;11.70;91.30;;;;;;5075716;28;20246;-84
2021/05/17 04:20:42;;;;;;;1.88;0.75;;;11.70;91.30;;;;;;5075282;28;20206;-84
2021/05/17 04:23:08;;;;;;;0.80;0.45;;;11.70;90.90;;;;;;5075143;28;20172;-84
2021/05/17 04:25:34;;;;;;;1.17;0.70;;;11.70;91.40;;;;;;5075591;28;20172;-84
2021/05/17 04:28:00;;;;;;;1.10;0.60;;;11.70;91.20;;;;;;5075300;28;20768;-84
2021/05/17 04:30:26;;;;;;;2.00;1.10;;;11.80;91.10;;;;;;5075561;28;20438;-85
2021/05/17 04:32:52;;;;;;;1.23;0.60;;;11.80;90.90;;;;;;5075044;28;20172;-84
2021/05/17 04:35:18;;;;;;;2.15;0.75;;;11.80;91.00;;;;;;5074791;28;20406;-84
2021/05/17 04:37:44;;;;;;;4.03;1.03;;;11.80;90.90;;;;;;5077098;28;20184;-83
2021/05/17 04:40:11;;;;;;;2.47;0.90;;;11.90;91.00;;;;;;5077551;28;20468;-82
2021/05/17 04:42:37;;;;;;;0.70;0.50;;;11.90;90.70;;;;;;5077862;28;20513;-83
2021/05/17 04:45:05;;;;;;;1.10;0.80;;;12.00;90.70;;;;;;5078215;28;20176;-83
2021/05/17 04:47:30;;;;;;;2.55;0.80;;;12.00;90.40;;;;;;5078197;28;20840;-83
2021/05/17 04:49:56;;;;;;;0.90;0.70;;;12.10;90.50;;;;;;5077680;28;20216;-83
2021/05/17 04:52:22;;;;;;;3.43;1.17;;;12.10;90.70;;;;;;5077212;28;20437;-83
2021/05/17 04:54:48;;;;;;;2.40;0.87;;;12.10;90.30;;;;;;5076668;28;20206;-83
2021/05/17 04:57:13;;;;;;;2.33;1.00;;;12.10;90.40;;;;;;5077386;28;20169;-83
2021/05/17 04:59:39;;;;;;;5.20;0.90;;;12.20;90.10;;;;;;5076509;28;20451;-83
2021/05/17 05:02:05;;;;;;;1.50;0.90;;;12.20;90.10;;;;;;5076139;28;20183;-84
2021/05/17 05:04:31;;;;;;;4.17;1.27;;;12.20;89.20;;;;;;5076947;28;20184;-83
2021/05/17 05:06:57;;;;;;;2.67;0.90;;;12.20;89.20;;;;;;5076696;28;20403;-83
2021/05/17 05:09:24;;;;;;;1.75;0.95;;;12.20;89.60;;;;;;5075879;28;20217;-83
2021/05/17 05:11:49;;;;;;;1.42;0.85;;;12.20;89.50;;;;;;5074909;28;20258;-84
2021/05/17 05:14:15;;;;;;;2.27;1.30;;;12.10;89.10;;;;;;5075749;28;20644;-84
2021/05/17 05:16:41;;;;;;;1.33;0.83;;;12.10;89.40;;;;;;5075732;28;20534;-84
2021/05/17 05:19:07;;;;;;;2.73;1.40;;;12.10;88.80;;;;;;5075462;28;20468;-83
2021/05/17 05:21:36;;;;;;;5.43;0.80;;;12.20;88.10;;;;;;5075707;28;20530;-83
2021/05/17 05:24:02;;;;;;;0.70;0.60;;;12.20;88.30;;;;;;5075374;28;20173;-83
2021/05/17 05:31:30;;;;;;;2.23;0.50;;;12.40;87.10;;;;;;5076673;28;20419;-84
2021/05/17 05:33:56;;;;;;;2.08;0.73;;;12.50;86.20;;;;;;5076265;28;20566;-83
2021/05/17 05:36:21;;;;;;;0.93;0.80;;;12.60;86.40;;;;;;5075954;28;20176;-83
2021/05/17 05:38:47;;;;;;;1.20;0.80;;;12.70;84.80;;;;;;5076274;28;20703;-83
2021/05/17 05:41:13;;;;;;;0.70;0.60;;;12.70;84.20;;;;;;5076550;28;20431;-83
2021/05/17 05:43:39;;;;;;;2.65;0.70;;;12.80;83.30;;;;;;5074963;28;20192;-83
2021/05/17 05:46:05;;;;;;;3.00;0.80;;;12.90;82.70;;;;;;5075304;28;20304;-83
2021/05/17 05:48:31;;;;;;;0.80;0.70;;;13.00;81.70;;;;;;5075406;28;20215;-83
2021/05/17 05:50:56;;;;;;;1.60;1.00;;;13.00;81.60;;;;;;5074760;28;20434;-83
2021/05/17 05:53:22;;;;;;;1.53;0.80;;;13.00;81.90;;;;;;5074699;28;20411;-84
2021/05/17 05:55:48;;;;;;;1.97;0.67;;;13.20;80.30;;;;;;5074899;28;20406;-84
2021/05/17 05:58:15;;;;;;;0.80;0.70;;;13.20;81.20;;;;;;5074915;28;20462;-84
2021/05/17 06:00:42;;;;;;;0.85;0.60;;;13.30;80.20;;;;;;5073253;28;20441;-77
2021/05/17 06:03:08;;;;;;;2.53;0.90;;;13.40;80.80;;;;;;5075413;28;20542;-82
2021/05/17 06:05:34;;;;;;;1.70;1.53;;;13.40;80.60;;;;;;5076201;28;20168;-82
2021/05/17 06:08:01;;;;;;;1.90;0.83;;;13.40;80.30;;;;;;5075227;28;20478;-83
2021/05/17 06:10:27;;;;;;;2.13;0.77;;;13.50;79.90;;;;;;5076639;28;20498;-82
2021/05/17 06:12:55;;;;;;;2.08;0.60;;;13.60;79.60;;;;;;5075164;28;20636;-82
2021/05/17 06:15:22;;;;;;;1.52;0.80;;;13.60;79.50;;;;;;5074010;28;20168;-82
2021/05/17 06:17:48;;;;;;;0.70;0.50;;;13.70;79.90;;;;;;5076320;28;20188;-82
2021/05/17 06:20:15;;;;;;;2.85;0.70;;;13.80;78.10;;;;;;5076107;28;20582;-82
2021/05/17 06:22:41;;;;;;;1.02;0.63;;;13.80;78.30;;;;;;5075879;28;20164;-82
2021/05/17 06:25:09;;;;;;;2.15;1.08;;;13.70;77.10;;;;;;5076783;28;20169;-82
2021/05/17 06:27:37;;;;;;;0.80;0.60;;;13.70;77.00;;;;;;5077041;28;20177;-82
2021/05/17 06:30:09;;;;;;;0.93;0.60;;;13.80;78.70;;;;;;5077256;28;20394;-82
2021/05/17 06:32:36;;;;;;;3.85;0.80;;;13.70;76.90;;;;;;5077273;28;20169;-82
2021/05/17 06:35:05;;;;;;;1.63;0.65;;;13.80;77.40;;;;;;5077637;28;20168;-82
2021/05/17 06:37:30;;;;;;;2.58;0.88;;;13.80;76.70;;;;;;5076968;28;20724;-82
2021/05/17 06:39:56;;;;;;;2.50;0.70;;;13.80;77.30;;;;;;5075854;28;20235;-78
2021/05/17 06:42:22;;;;;;;3.27;1.10;;;13.70;76.40;;;;;;5074729;28;20411;-80
2021/05/17 06:44:48;;;;;;;4.88;0.75;;;13.80;77.00;;;;;;5075105;28;20598;-79
2021/05/17 06:47:15;;;;;;;0.82;0.50;;;13.60;78.70;;;;;;5074823;28;20169;-79
2021/05/17 06:49:42;;;;;;;0.80;0.70;;;13.60;77.40;;;;;;5075273;28;20176;-79
2021/05/17 06:52:12;;;;;;;1.40;0.75;;;13.70;77.30;;;;;;5075288;28;20261;-79
2021/05/17 06:54:38;;;;;;;1.23;0.82;;;13.70;77.70;;;;;;5074662;28;20169;-79
2021/05/17 06:57:24;;;;;;;4.22;0.55;;;13.90;78.30;;;;;;5075572;28;20186;-79
2021/05/17 06:59:55;;;;;;;0.50;0.50;;;14.10;77.00;;;;;;5074403;28;20196;-79
2021/05/17 07:02:23;;;;;;;0.88;0.57;;;14.30;76.00;;;;;;5074028;28;20157;-79
2021/05/17 07:04:50;;;;;;;0.80;0.50;;;14.40;76.00;;;;;;5073857;28;20168;-79
2021/05/17 07:07:25;;;;;;;0.80;0.60;;;14.30;74.60;;;;;;5074574;28;20177;-79
2021/05/17 07:12:36;;;;;;;11.45;0.85;;;14.10;75.80;;;;;;5075979;28;20180;-78
2021/05/17 07:15:05;;;;;;;0.50;0.50;;;14.00;76.20;;;;;;5074109;28;20210;-78
2021/05/17 07:17:31;;;;;;;1.27;0.77;;;14.00;76.40;;;;;;5074731;28;20198;-79
2021/05/17 07:19:57;;;;;;;1.30;0.60;;;14.00;77.70;;;;;;5074099;28;20216;-79
2021/05/17 07:25:07;;;;;;;2.40;0.80;;;14.00;77.10;;;;;;5074966;28;20230;-79
2021/05/17 07:27:33;;;;;;;2.67;0.70;;;14.10;77.40;;;;;;5077866;28;20165;-79
2021/05/17 07:29:59;;;;;;;1.00;0.60;;;14.30;76.70;;;;;;5076756;28;20199;-78
2021/05/17 07:32:25;;;;;;;4.30;1.23;;;14.30;76.70;;;;;;5076985;28;20429;-78
2021/05/17 07:34:50;;;;;;;2.10;0.60;;;14.50;77.00;;;;;;5078587;28;20403;-78
2021/05/17 07:37:16;;;;;;;0.60;0.60;;;14.60;76.00;;;;;;5077330;28;20418;-79
2021/05/17 07:39:42;;;;;;;0.80;0.70;;;14.70;76.20;;;;;;5077054;28;20204;-79
2021/05/17 07:42:09;;;;;;;3.93;0.80;;;14.90;75.50;;;;;;5076861;28;20762;-79
2021/05/17 07:44:35;;;;;;;1.17;0.70;;;15.10;74.90;;;;;;5077026;28;20781;-79
2021/05/17 07:47:02;;;;;;;0.93;0.50;;;15.30;73.50;;;;;;5077278;28;20172;-79
2021/05/17 07:49:36;;;;;;;1.35;0.70;;;15.40;72.30;;;;;;5077619;28;20173;-78
2021/05/17 07:52:03;;;;;;;1.58;0.60;;;15.50;72.80;;;;;;5076883;28;20165;-79
2021/05/17 07:54:29;;;;;;;1.23;0.70;;;15.60;71.60;;;;;;5077608;28;20186;-79
2021/05/17 07:56:55;;;;;;;0.80;0.57;;;15.60;70.20;;;;;;5077259;28;20180;-79
2021/05/17 07:59:23;;;;;;;0.60;0.60;;;15.70;69.80;;;;;;5076858;28;20450;-79
2021/05/17 08:01:52;;;;;;;2.30;0.93;;;15.70;69.80;;;;;;5076857;28;20437;-79
2021/05/17 08:04:18;;;;;;;1.88;0.90;;;15.80;69.10;;;;;;5077230;28;20227;-78
2021/05/17 08:06:44;;;;;;;1.77;0.77;;;15.70;67.40;;;;;;5077023;28;20410;-79
2021/05/17 08:09:10;;;;;;;2.85;1.05;;;15.80;68.50;;;;;;5076298;28;20923;-79
2021/05/17 08:11:36;;;;;;;2.50;0.73;;;15.80;66.30;;;;;;5078108;28;20279;-79
2021/05/17 08:14:02;;;;;;;0.80;0.60;;;15.80;66.20;;;;;;5077594;28;20173;-81
2021/05/17 08:16:29;;;;;;;1.73;0.80;;;15.70;66.70;;;;;;5080513;28;20500;-81
2021/05/17 08:18:56;;;;;;;1.80;0.80;;;15.70;67.80;;;;;;5081908;28;20250;-81
2021/05/17 08:21:22;;;;;;;4.75;0.60;;;15.60;68.50;;;;;;5080156;28;20192;-82
2021/05/17 08:23:48;;;;;;;1.60;0.50;;;15.60;67.30;;;;;;5080120;28;20175;-81
2021/05/17 08:26:14;;;;;;;0.60;0.60;;;15.70;67.40;;;;;;5081392;28;20256;-82
2021/05/17 08:28:41;;;;;;;4.00;0.80;;;15.90;67.00;;;;;;5080838;28;20441;-82
2021/05/17 08:31:10;;;;;;;0.88;0.52;;;15.90;66.30;;;;;;5079985;28;20193;-81
2021/05/17 08:33:36;;;;;;;1.75;0.65;;;15.90;65.80;;;;;;5080297;28;20172;-81
2021/05/17 08:36:02;;;;;;;2.00;0.50;;;15.90;65.80;;;;;;5079461;28;20179;-81
2021/05/17 08:38:27;;;;;;;1.00;0.90;;;15.90;65.10;;;;;;5078592;28;20446;-82
2021/05/17 08:40:53;;;;;;;1.00;0.70;;;15.90;65.10;;;;;;5077829;28;20541;-82
2021/05/17 08:43:19;;;;;;;3.37;1.40;;;15.90;63.80;;;;;;5078558;28;20418;-82
2021/05/17 08:45:45;;;;;;;0.90;0.50;;;15.60;65.90;;;;;;5080847;28;20415;-82
2021/05/17 08:48:12;;;;;;;4.10;1.75;;;15.80;66.40;;;;;;5079228;28;20476;-81
2021/05/17 08:50:39;;;;;;;0.80;0.80;;;16.00;65.90;;;;;;5078825;28;20188;-81
2021/05/17 08:53:05;;;;;;;3.65;0.88;;;16.10;64.60;;;;;;5077199;28;20222;-78
2021/05/17 08:55:31;;;;;;;2.03;0.68;;;16.30;63.90;;;;;;5074673;28;20264;-78
2021/05/17 08:57:57;;;;;;;2.13;0.80;;;16.40;64.90;;;;;;5075270;28;20180;-78
2021/05/17 09:00:24;;;;;;;2.25;0.70;;;16.70;62.70;;;;;;5075531;28;20208;-78
2021/05/17 09:02:51;;;;;;;1.88;0.60;;;16.70;63.00;;;;;;5075850;28;20533;-79
2021/05/17 09:05:20;;;;;;;1.23;0.60;;;16.90;62.30;;;;;;5074511;28;20219;-78
2021/05/17 09:07:54;;;;;;;6.18;0.80;;;16.90;61.40;;;;;;5074947;28;20183;-77
2021/05/17 09:10:25;;;;;;;3.10;0.70;;;16.80;61.90;;;;;;5074389;28;20302;-78
2021/05/17 09:12:56;;;;;;;0.90;0.80;;;16.60;62.60;;;;;;5074910;28;20177;-78
2021/05/17 09:15:48;;;;;;;3.85;0.93;;;16.60;64.20;;;;;;5075211;28;20168;-78
2021/05/17 09:18:24;;;;;;;7.40;1.23;;;16.90;65.50;;;;;;5074584;28;20168;-78
2021/05/17 09:20:52;;;;;;;2.65;0.65;;;17.30;64.20;;;;;;5074203;28;20256;-78
2021/05/17 09:23:34;;;;;;;1.15;0.80;;;17.70;64.20;;;;;;5074264;28;20251;-78
2021/05/17 09:26:26;;;;;;;2.05;0.65;;;18.00;60.90;;;;;;5074836;28;20164;-79
2021/05/17 09:28:52;;;;;;;0.80;0.60;;;17.60;60.20;;;;;;5074339;28;20660;-78
2021/05/17 09:31:22;;;;;;;1.10;0.70;;;17.30;62.40;;;;;;5074738;28;20196;-78
2021/05/17 09:33:52;;;;;;;1.67;0.80;;;17.30;67.30;;;;;;5075357;28;20408;-79
2021/05/17 09:36:32;;;;;;;1.25;0.95;;;17.30;65.10;;;;;;5075406;28;20669;-79
2021/05/17 09:39:04;;;;;;;0.85;0.63;;;17.40;62.80;;;;;;5074257;28;20643;-78
2021/05/17 09:41:40;;;;;;;0.70;0.50;;;17.50;63.30;;;;;;5074143;28;20326;-79
2021/05/17 09:44:06;;;;;;;1.02;0.60;;;17.70;62.10;;;;;;5074147;28;20176;-78
2021/05/17 09:46:54;;;;;;;2.30;0.70;;;17.80;59.70;;;;;;5075391;28;20255;-79
2021/05/17 09:49:41;;;;;;;3.20;0.60;;;17.70;60.20;;;;;;5073373;28;20664;-78
2021/05/17 09:52:16;;;;;;;4.40;0.80;;;17.60;60.60;;;;;;5074061;28;20210;-78
2021/05/17 09:54:47;;;;;;;0.52;0.50;;;17.60;61.40;;;;;;5075160;28;20240;-79
2021/05/17 09:57:21;;;;;;;1.10;0.75;;;17.20;63.10;;;;;;5074829;28;20176;-79
2021/05/17 09:59:48;;;;;;;0.70;0.50;;;16.90;67.60;;;;;;5075326;28;20211;-79
2021/05/17 10:02:31;;;;;;;0.90;0.70;;;16.70;68.80;;;;;;5075213;28;20541;-79
2021/05/17 10:05:07;;;;;;;0.75;0.60;;;16.80;69.80;;;;;;5074954;28;20176;-78
2021/05/17 10:07:33;;;;;;;2.05;0.70;;;16.80;69.20;;;;;;5075100;28;20205;-78
2021/05/17 10:10:00;;;;;;;0.80;0.60;;;16.90;68.90;;;;;;5074532;28;20199;-78
2021/05/17 10:12:27;;;;;;;1.45;0.85;;;16.80;66.90;;;;;;5074619;28;20210;-78
2021/05/17 10:14:53;;;;;;;0.70;0.55;;;16.90;68.30;;;;;;5074181;28;20176;-79
2021/05/17 10:17:20;;;;;;;6.13;0.90;;;17.00;69.10;;;;;;5074773;28;20277;-79
2021/05/17 10:19:46;;;;;;;0.98;0.70;;;17.10;66.70;;;;;;5074012;28;20479;-77
2021/05/17 10:22:12;;;;;;;0.97;0.70;;;17.10;66.30;;;;;;5074494;28;20675;-78
2021/05/17 10:24:37;;;;;;;1.85;0.82;;;17.10;65.20;;;;;;5075522;28;21107;-78
2021/05/17 10:27:04;;;;;;;2.70;1.00;;;17.30;66.30;;;;;;5076177;28;20165;-79
2021/05/17 10:29:33;;;;;;;2.90;0.80;;;17.30;66.00;;;;;;5075241;28;20176;-79
2021/05/17 10:32:00;;;;;;;1.80;1.00;;;17.30;66.70;;;;;;5075280;28;20172;-79
2021/05/17 10:34:26;;;;;;;2.42;0.82;;;17.20;67.70;;;;;;5075041;28;20191;-78
2021/05/17 10:36:55;;;;;;;2.70;0.90;;;17.20;68.90;;;;;;5074830;28;20172;-79
2021/05/17 10:39:35;;;;;;;1.45;0.80;;;16.90;69.20;;;;;;5074780;28;20505;-78
2021/05/17 10:48:19;;;;;;;1.15;0.65;;;16.40;73.70;;;;;;5076261;28;20191;-78
2021/05/17 10:50:51;;;;;;;0.80;0.70;;;16.10;75.60;;;;;;5073756;28;20254;-78
2021/05/17 10:53:56;;;;;;;2.22;1.23;;;15.90;77.30;;;;;;5074580;28;20176;-78
2021/05/17 10:56:55;;;;;;;2.35;1.00;;;15.70;83.90;;;;;;5074264;28;20176;-78
2021/05/17 11:02:28;;;;;;;3.63;0.75;;;15.80;85.90;;;;;;5079018;28;20180;-78
2021/05/17 11:04:56;;;;;;;2.83;0.80;;;16.00;82.40;;;;;;5077950;28;20172;-78
2021/05/17 11:07:45;;;;;;;1.58;0.80;;;16.20;82.80;;;;;;5078204;28;20176;-78
2021/05/17 11:10:15;;;;;;;6.72;1.30;;;16.10;81.30;;;;;;5077230;28;20192;-79
2021/05/17 11:12:41;;;;;;;4.95;0.90;;;16.10;83.50;;;;;;5078247;28;20180;-78
2021/05/17 11:15:19;;;;;;;2.65;0.73;;;15.90;79.60;;;;;;5077505;28;20173;-78
2021/05/17 11:18:06;;;;;;;1.50;0.60;;;16.00;82.70;;;;;;5077562;28;20210;-79
2021/05/17 11:20:50;;;;;;;2.08;0.80;;;16.30;73.50;;;;;;5077577;28;20201;-78
2021/05/17 11:23:22;;;;;;;3.67;1.10;;;16.40;77.00;;;;;;5076481;28;20167;-78
2021/05/17 11:28:36;;;;;;;2.88;0.90;;;17.30;73.40;;;;;;5077691;28;20165;-78
2021/05/17 11:31:27;;;;;;;0.80;0.60;;;17.40;71.20;;;;;;5077367;28;20203;-79
2021/05/17 11:34:02;;;;;;;0.85;0.73;;;17.30;70.60;;;;;;5077070;28;20160;-78
2021/05/17 11:36:39;;;;;;;6.65;0.90;;;17.20;72.70;;;;;;5076597;28;20169;-78
2021/05/17 11:39:11;;;;;;;0.80;0.60;;;17.00;73.40;;;;;;5077652;28;20184;-79
2021/05/17 11:41:41;;;;;;;0.82;0.80;;;17.00;73.10;;;;;;5077775;28;20279;-78
2021/05/17 11:44:10;;;;;;;0.90;0.80;;;16.70;72.10;;;;;;5077336;28;20175;-78
2021/05/17 11:46:38;;;;;;;2.35;0.93;;;16.50;72.80;;;;;;5077092;28;20825;-77
2021/05/17 11:49:05;;;;;;;2.80;2.05;;;16.40;77.70;;;;;;5075858;28;20226;-79
2021/05/17 11:51:32;;;;;;;5.15;1.30;;;16.30;78.50;;;;;;5076516;28;20680;-78
2021/05/17 11:53:58;;;;;;;2.10;0.93;;;15.90;81.70;;;;;;5077217;28;20184;-78
2021/05/17 11:56:39;;;;;;;1.30;0.85;;;15.80;84.50;;;;;;5077285;28;20173;-78
2021/05/17 11:59:22;;;;;;;1.13;0.70;;;15.80;86.20;;;;;;5076326;28;20220;-78
2021/05/17 12:01:51;;;;;;;5.90;1.20;;;16.30;87.00;;;;;;5076193;28;20195;-78
2021/05/17 12:04:34;;;;;;;2.67;0.80;;;16.60;82.80;;;;;;5077432;28;20180;-78
2021/05/17 12:07:03;;;;;;;2.25;0.90;;;16.80;80.10;;;;;;5077205;28;20168;-78
2021/05/17 12:09:31;;;;;;;1.60;0.82;;;17.10;78.30;;;;;;5077190;28;20649;-78
2021/05/17 12:11:59;;;;;;;1.83;0.80;;;17.20;80.10;;;;;;5074503;28;20196;-78
2021/05/17 12:14:25;;;;;;;2.03;1.02;;;17.20;80.20;;;;;;5075966;28;20541;-78
2021/05/17 12:17:05;;;;;;;0.60;0.40;;;17.30;79.40;;;;;;5075574;28;20243;-78
2021/05/17 12:19:31;;;;;;;1.70;0.50;;;17.40;71.70;;;;;;5074651;28;20485;-77
2021/05/17 12:22:05;;;;;;;1.33;0.60;;;17.30;73.30;;;;;;5075036;28;20207;-79
2021/05/17 12:24:32;;;;;;;0.88;0.50;;;17.10;69.50;;;;;;5075054;28;20459;-78
2021/05/17 12:27:01;;;;;;;2.53;0.60;;;17.10;74.40;;;;;;5075659;28;20168;-79
2021/05/17 12:29:29;;;;;;;0.90;0.70;;;17.10;68.10;;;;;;5074722;28;20176;-78
2021/05/17 12:32:09;;;;;;;2.25;0.60;;;17.20;71.90;;;;;;5075731;28;20188;-78
2021/05/17 12:34:35;;;;;;;1.40;0.60;;;17.10;67.10;;;;;;5076496;28;20172;-78
2021/05/17 12:37:01;;;;;;;1.00;0.50;;;17.00;67.80;;;;;;5076369;28;20207;-79
2021/05/17 12:39:27;;;;;;;0.60;0.50;;;17.10;67.70;;;;;;5074979;28;20210;-78
2021/05/17 12:41:53;;;;;;;0.70;0.60;;;17.40;66.60;;;;;;5073703;28;20238;-77
2021/05/17 12:44:29;;;;;;;1.73;0.40;;;17.90;64.20;;;;;;5073546;28;20418;-77
2021/05/17 12:47:21;;;;;;;1.05;0.50;;;18.20;61.20;;;;;;5073312;28;20248;-78
2021/05/17 12:49:55;;;;;;;2.25;0.50;;;18.30;59.30;;;;;;5072161;28;20199;-77
2021/05/17 12:52:25;;;;;;;0.50;0.50;;;18.00;61.20;;;;;;5073978;28;20183;-77
2021/05/17 12:55:16;;;;;;;0.70;0.60;;;18.00;61.70;;;;;;5073303;28;20169;-78
2021/05/17 12:57:59;;;;;;;1.10;0.50;;;18.00;61.60;;;;;;5073254;28;20655;-78
2021/05/17 13:00:37;;;;;;;0.70;0.55;;;18.10;59.80;;;;;;5073185;28;20211;-78
2021/05/17 13:03:24;;;;;;;0.60;0.40;;;18.30;59.30;;;;;;5073239;28;20515;-77
2021/05/17 13:06:01;;;;;;;2.05;0.75;;;18.50;62.40;;;;;;5065953;28;20319;-78
2021/05/17 13:08:36;;;;;;;3.28;0.50;;;18.60;58.80;;;;;;5073464;28;20176;-77
2021/05/17 13:11:13;;;;;;;2.10;0.57;;;18.70;58.70;;;;;;5073440;28;20220;-77
2021/05/17 13:13:42;;;;;;;1.02;0.50;;;18.60;58.30;;;;;;5073674;28;20668;-78
2021/05/17 13:16:23;;;;;;;0.85;0.60;;;18.70;56.80;;;;;;5073335;28;20651;-78
2021/05/17 13:32:19;;;;;;;2.80;0.70;;;19.40;55.10;;;;;;5075972;28;20179;-80
2021/05/17 13:34:45;;;;;;;0.50;0.40;;;19.20;58.00;;;;;;5077141;28;20196;-80
2021/05/17 13:37:11;;;;;;;1.03;0.50;;;19.00;53.80;;;;;;5076178;28;20176;-80
2021/05/17 13:39:37;;;;;;;1.83;0.73;;;18.80;56.70;;;;;;5075516;28;20673;-80
2021/05/17 13:42:03;;;;;;;1.10;0.50;;;18.70;56.80;;;;;;5076450;28;20164;-80